Time;durP1;ratioP1;P1;durP2;ratioP2;P2;SDS_P1;SDS_P2;PMS_P1;PMS_P2;Temp;Humidity;BMP_temperature;BMP_pressure;BME280_temperature;BME280_humidity;BME280_pressure;Samples;Min_cycle;Max_cycle;Signal;HPM_P1;HPM_P2
2021/11/11 00:01:11;;;;;;;23.97;17.40;;;3.60;96.40;;;;;;5051067;28;20243;-89
2021/11/11 00:03:38;;;;;;;26.77;17.90;;;3.50;96.30;;;;;;5050755;28;20236;-89
2021/11/11 00:06:06;;;;;;;25.33;17.10;;;3.40;96.70;;;;;;5019879;28;20202;-88
2021/11/11 00:08:33;;;;;;;24.53;16.57;;;3.20;97.20;;;;;;5017542;28;20230;-89
2021/11/11 00:11:00;;;;;;;24.93;16.37;;;3.30;97.30;;;;;;5043424;28;20240;-88
2021/11/11 00:13:27;;;;;;;26.77;16.90;;;3.40;97.10;;;;;;5043856;28;20232;-90
2021/11/11 00:15:54;;;;;;;25.33;16.77;;;3.40;96.80;;;;;;5045448;28;20226;-90
2021/11/11 00:18:21;;;;;;;25.90;16.23;;;3.50;96.60;;;;;;5045169;28;20433;-89
2021/11/11 00:20:48;;;;;;;23.20;16.30;;;3.50;96.30;;;;;;5046295;28;20202;-88
2021/11/11 00:23:16;;;;;;;21.90;15.83;;;3.40;96.10;;;;;;5051778;28;20271;-87
2021/11/11 00:25:43;;;;;;;21.57;15.27;;;3.30;96.30;;;;;;5059024;28;20199;-88
2021/11/11 00:28:11;;;;;;;21.40;15.07;;;3.30;96.40;;;;;;5063764;28;20285;-88
2021/11/11 00:30:37;;;;;;;23.70;15.43;;;3.20;96.30;;;;;;5059416;28;20441;-88
2021/11/11 00:33:05;;;;;;;25.93;15.37;;;3.30;96.40;;;;;;5057901;28;20214;-88
2021/11/11 00:35:33;;;;;;;22.47;15.47;;;3.20;96.30;;;;;;5046576;28;20289;-88
2021/11/11 00:38:01;;;;;;;26.17;15.63;;;3.20;96.40;;;;;;5054770;28;20253;-88
2021/11/11 00:40:31;;;;;;;21.70;15.47;;;3.20;96.50;;;;;;5034219;28;20205;-88
2021/11/11 00:42:59;;;;;;;20.90;14.63;;;3.10;96.40;;;;;;5051997;28;20232;-89
2021/11/11 00:45:27;;;;;;;21.63;14.80;;;3.10;96.50;;;;;;5048908;28;20414;-89
2021/11/11 00:47:54;;;;;;;23.23;14.97;;;3.10;96.30;;;;;;5045126;28;20230;-89
2021/11/11 00:50:25;;;;;;;21.87;14.80;;;3.00;96.40;;;;;;5048814;28;20198;-88
2021/11/11 00:52:52;;;;;;;20.37;14.53;;;3.00;96.50;;;;;;5050733;28;20231;-90
2021/11/11 00:55:20;;;;;;;20.53;13.47;;;3.00;96.20;;;;;;5050049;28;20206;-89
2021/11/11 00:57:48;;;;;;;20.20;13.90;;;3.00;96.30;;;;;;5043685;28;20238;-89
2021/11/11 01:00:17;;;;;;;18.37;13.73;;;2.90;95.90;;;;;;5053880;28;20207;-88
2021/11/11 01:02:46;;;;;;;19.57;13.20;;;2.80;96.30;;;;;;5058688;28;20325;-89
2021/11/11 01:05:15;;;;;;;18.73;13.30;;;2.80;96.30;;;;;;5050654;28;20227;-89
2021/11/11 01:07:42;;;;;;;21.73;13.90;;;2.80;96.20;;;;;;5054114;28;20231;-89
2021/11/11 01:10:12;;;;;;;19.47;13.20;;;2.70;96.20;;;;;;5055311;28;20207;-89
2021/11/11 01:12:40;;;;;;;19.00;13.00;;;2.50;96.60;;;;;;5049048;28;20226;-89
2021/11/11 01:15:11;;;;;;;16.33;12.33;;;2.50;97.20;;;;;;5053224;28;20301;-89
2021/11/11 01:17:42;;;;;;;19.93;12.63;;;2.60;97.40;;;;;;5061311;28;20229;-89
2021/11/11 01:20:11;;;;;;;17.30;12.03;;;2.70;97.10;;;;;;5051591;28;20202;-89
2021/11/11 01:22:39;;;;;;;17.37;12.13;;;2.70;96.70;;;;;;5053355;28;20221;-89
2021/11/11 01:25:09;;;;;;;17.97;12.87;;;2.70;96.50;;;;;;5049296;28;20222;-90
2021/11/11 01:27:36;;;;;;;20.03;12.93;;;2.70;96.10;;;;;;5048731;28;20230;-89
2021/11/11 01:30:03;;;;;;;20.83;13.13;;;2.50;96.50;;;;;;5035461;28;20271;-89
2021/11/11 01:32:32;;;;;;;18.20;11.90;;;2.30;96.90;;;;;;5054264;28;20229;-90
2021/11/11 01:34:59;;;;;;;16.63;12.23;;;2.30;97.40;;;;;;5054736;28;20205;-89
2021/11/11 01:37:26;;;;;;;21.57;12.37;;;2.50;97.70;;;;;;5051734;28;20225;-88
2021/11/11 01:39:56;;;;;;;18.97;12.67;;;2.50;97.20;;;;;;5057099;28;20208;-89
2021/11/11 01:42:27;;;;;;;17.37;11.90;;;2.50;97.20;;;;;;5042606;28;20222;-89
2021/11/11 01:44:56;;;;;;;19.07;12.30;;;2.40;97.20;;;;;;5057594;28;20229;-88
2021/11/11 01:47:23;;;;;;;18.30;11.40;;;2.60;97.20;;;;;;5056110;28;20225;-89
2021/11/11 01:49:52;;;;;;;16.80;11.40;;;2.70;96.80;;;;;;5056244;28;20214;-89
2021/11/11 01:52:19;;;;;;;15.47;11.23;;;2.70;96.60;;;;;;5051863;28;20221;-89
2021/11/11 01:54:46;;;;;;;16.30;11.37;;;2.70;96.20;;;;;;5051491;28;20210;-89
2021/11/11 01:57:15;;;;;;;15.33;11.63;;;2.70;96.00;;;;;;5043448;28;20609;-89
2021/11/11 01:59:42;;;;;;;17.67;11.47;;;2.70;95.90;;;;;;5061175;28;20291;-89
2021/11/11 02:02:10;;;;;;;16.37;11.33;;;2.70;95.90;;;;;;5047158;28;20238;-89
2021/11/11 02:04:36;;;;;;;15.70;11.53;;;2.60;95.80;;;;;;5056917;28;20645;-89
2021/11/11 02:07:05;;;;;;;16.70;11.73;;;2.60;95.70;;;;;;5046076;28;20560;-88
2021/11/11 02:09:33;;;;;;;16.90;10.80;;;2.50;95.70;;;;;;5053080;28;20235;-89
2021/11/11 02:12:00;;;;;;;16.03;11.47;;;2.50;95.80;;;;;;5053797;28;20229;-89
2021/11/11 02:14:27;;;;;;;16.80;11.00;;;2.50;95.80;;;;;;5047647;28;20216;-88
2021/11/11 02:16:54;;;;;;;17.80;11.03;;;2.40;95.80;;;;;;5052702;28;20198;-90
2021/11/11 02:19:22;;;;;;;14.53;11.43;;;2.30;96.20;;;;;;5043067;28;20206;-88
2021/11/11 02:21:54;;;;;;;15.40;11.83;;;2.30;96.30;;;;;;5051072;28;20737;-89
2021/11/11 02:24:21;;;;;;;17.50;10.73;;;2.10;96.30;;;;;;5049538;28;20198;-88
2021/11/11 02:26:50;;;;;;;16.93;11.00;;;2.10;96.90;;;;;;5054751;28;20211;-89
2021/11/11 02:29:17;;;;;;;17.30;11.43;;;2.10;97.30;;;;;;5049447;28;20221;-89
2021/11/11 02:31:45;;;;;;;15.07;11.40;;;2.20;97.40;;;;;;5048530;28;20206;-88
2021/11/11 02:34:12;;;;;;;15.13;10.97;;;2.30;97.00;;;;;;5049047;28;20263;-89
2021/11/11 02:36:54;;;;;;;16.13;11.03;;;2.40;96.80;;;;;;5046394;28;20217;-89
2021/11/11 02:39:21;;;;;;;14.47;10.80;;;2.40;96.40;;;;;;5054846;28;20702;-88
2021/11/11 02:41:48;;;;;;;14.60;11.03;;;2.50;96.00;;;;;;5054175;28;20296;-89
2021/11/11 02:44:16;;;;;;;14.77;10.40;;;2.30;96.00;;;;;;5051854;28;20211;-88
2021/11/11 02:46:43;;;;;;;16.67;11.53;;;2.20;96.40;;;;;;5055543;28;20221;-89
2021/11/11 02:49:10;;;;;;;14.93;10.80;;;2.20;96.90;;;;;;5051365;28;20232;-88
2021/11/11 02:51:37;;;;;;;15.20;10.87;;;2.20;96.80;;;;;;5054470;28;20219;-88
2021/11/11 02:54:05;;;;;;;17.80;10.80;;;2.20;97.00;;;;;;5051186;28;20255;-89
2021/11/11 02:56:33;;;;;;;14.80;10.77;;;2.30;96.80;;;;;;5046304;28;20214;-89
2021/11/11 02:59:00;;;;;;;14.43;10.70;;;2.40;96.50;;;;;;5050509;28;20485;-89
2021/11/11 03:01:27;;;;;;;14.40;10.83;;;2.30;96.40;;;;;;5055968;28;20584;-88
2021/11/11 03:03:54;;;;;;;18.77;10.13;;;2.40;96.20;;;;;;5049310;28;20221;-90
2021/11/11 03:06:21;;;;;;;14.83;10.07;;;2.30;96.20;;;;;;5051862;28;20206;-89
2021/11/11 03:08:48;;;;;;;12.70;9.83;;;2.30;96.40;;;;;;5058114;28;20229;-90
2021/11/11 03:11:17;;;;;;;16.23;10.00;;;2.20;96.50;;;;;;5039652;28;20205;-88
2021/11/11 03:13:44;;;;;;;16.93;10.43;;;2.20;96.50;;;;;;5053147;28;20228;-88
2021/11/11 03:16:11;;;;;;;15.17;10.10;;;2.20;96.50;;;;;;5043691;28;20212;-89
2021/11/11 03:18:38;;;;;;;13.87;10.10;;;2.20;96.40;;;;;;5049280;28;20226;-88
2021/11/11 03:21:05;;;;;;;13.97;9.97;;;2.10;96.60;;;;;;5044347;28;20199;-89
2021/11/11 03:23:32;;;;;;;13.77;10.03;;;2.00;96.90;;;;;;5068432;28;20229;-89
2021/11/11 03:25:59;;;;;;;14.17;9.83;;;2.00;97.10;;;;;;5050406;28;20269;-87
2021/11/11 03:28:27;;;;;;;14.10;10.27;;;2.10;97.10;;;;;;5067778;28;20225;-88
2021/11/11 03:30:54;;;;;;;16.50;10.60;;;2.20;96.70;;;;;;5062969;28;20199;-88
2021/11/11 03:33:21;;;;;;;14.23;10.27;;;2.20;96.60;;;;;;5060303;28;20218;-87
2021/11/11 03:35:48;;;;;;;14.27;10.30;;;2.20;96.50;;;;;;5063648;28;20682;-89
2021/11/11 03:38:17;;;;;;;14.90;9.23;;;2.20;96.40;;;;;;5067585;28;20255;-88
2021/11/11 03:40:46;;;;;;;13.83;9.63;;;2.20;96.20;;;;;;5060680;28;20241;-88
2021/11/11 03:43:14;;;;;;;14.27;9.33;;;2.20;96.10;;;;;;5063108;28;20309;-88
2021/11/11 03:45:42;;;;;;;14.23;10.17;;;2.20;96.00;;;;;;5064846;28;20209;-88
2021/11/11 03:48:11;;;;;;;16.03;9.57;;;2.20;96.00;;;;;;5057236;28;20233;-87
2021/11/11 03:50:38;;;;;;;12.40;9.73;;;2.10;96.00;;;;;;5065690;28;20301;-88
2021/11/11 03:53:05;;;;;;;16.77;10.73;;;2.10;95.90;;;;;;5062851;28;20465;-87
2021/11/11 03:55:33;;;;;;;17.03;10.87;;;1.90;96.20;;;;;;5064314;28;20265;-87
2021/11/11 03:58:00;;;;;;;13.53;9.80;;;1.80;96.70;;;;;;5061190;28;20221;-87
2021/11/11 04:00:29;;;;;;;15.73;10.43;;;1.90;97.00;;;;;;5070959;28;20200;-87
2021/11/11 04:02:58;;;;;;;15.10;9.70;;;2.00;96.80;;;;;;5057821;28;20238;-89
2021/11/11 04:05:25;;;;;;;12.43;9.80;;;2.00;96.70;;;;;;5061910;28;20206;-87
2021/11/11 04:07:52;;;;;;;12.40;9.57;;;2.10;96.30;;;;;;5059774;28;20723;-87
2021/11/11 04:10:19;;;;;;;13.30;10.37;;;2.00;96.50;;;;;;5051283;28;20297;-87
2021/11/11 04:12:46;;;;;;;15.47;10.60;;;2.00;96.70;;;;;;5061787;28;20227;-87
2021/11/11 04:15:14;;;;;;;14.53;9.23;;;1.90;96.90;;;;;;5061480;28;20264;-88
2021/11/11 04:17:41;;;;;;;13.33;9.47;;;1.90;97.00;;;;;;5041392;28;20229;-88
2021/11/11 04:20:12;;;;;;;13.07;9.57;;;2.00;97.10;;;;;;5063552;28;20325;-87
2021/11/11 04:22:39;;;;;;;13.40;9.57;;;2.10;97.00;;;;;;5063115;28;20405;-88
2021/11/11 04:25:08;;;;;;;15.10;9.67;;;2.00;97.10;;;;;;5042233;28;20233;-89
2021/11/11 04:27:40;;;;;;;13.80;9.97;;;2.10;97.20;;;;;;5046038;28;20223;-88
2021/11/11 04:30:14;;;;;;;12.93;9.80;;;2.20;97.10;;;;;;5065496;28;20217;-88
2021/11/11 04:32:42;;;;;;;12.80;9.53;;;2.30;96.80;;;;;;5055720;28;20586;-88
2021/11/11 04:35:11;;;;;;;13.53;9.60;;;2.30;96.40;;;;;;5063532;28;20308;-88
2021/11/11 04:43:49;;;;;;;13.07;9.27;;;2.10;96.40;;;;;;5083917;27;20225;-88
2021/11/11 04:52:09;;;;;;;11.00;9.40;;;2.10;96.10;;;;;;5069620;28;20560;-88
2021/11/11 05:00:27;;;;;;;12.23;9.50;;;2.00;96.40;;;;;;5069435;28;20232;-89
2021/11/11 05:03:04;;;;;;;14.03;9.60;;;2.00;96.50;;;;;;5068300;28;20221;-89
2021/11/11 05:05:32;;;;;;;13.93;9.37;;;2.00;96.40;;;;;;5071894;28;20212;-88
2021/11/11 05:07:59;;;;;;;11.67;9.33;;;1.90;96.60;;;;;;5065110;28;20224;-88
2021/11/11 05:10:26;;;;;;;12.53;9.53;;;1.90;97.30;;;;;;5078374;28;20224;-86
2021/11/11 05:12:56;;;;;;;14.63;10.20;;;1.90;97.20;;;;;;5074460;28;20244;-88
2021/11/11 05:15:23;;;;;;;16.43;10.20;;;2.00;97.60;;;;;;5074736;28;20220;-87
2021/11/11 05:17:51;;;;;;;16.23;10.27;;;2.20;97.70;;;;;;5075066;28;20229;-87
2021/11/11 05:20:20;;;;;;;17.27;9.40;;;2.20;97.80;;;;;;5079704;28;20221;-88
2021/11/11 05:22:47;;;;;;;12.60;9.40;;;2.30;97.60;;;;;;5072154;28;20239;-88
2021/11/11 05:25:16;;;;;;;17.10;9.73;;;2.30;97.30;;;;;;5071512;28;20269;-88
2021/11/11 05:27:45;;;;;;;15.10;10.10;;;2.30;97.30;;;;;;5073330;28;20299;-88
2021/11/11 05:30:15;;;;;;;12.77;9.37;;;2.40;97.60;;;;;;5076554;28;20212;-89
2021/11/11 05:32:43;;;;;;;13.73;9.67;;;2.50;97.50;;;;;;5081406;28;20243;-89
2021/11/11 05:35:11;;;;;;;18.33;10.70;;;2.60;97.30;;;;;;5078476;28;20197;-88
2021/11/11 05:37:39;;;;;;;19.17;11.03;;;2.70;97.30;;;;;;5071237;28;20224;-88
2021/11/11 05:40:08;;;;;;;13.10;9.93;;;2.70;97.20;;;;;;5080744;28;20669;-88
2021/11/11 05:42:36;;;;;;;17.07;10.43;;;2.80;97.20;;;;;;5070113;28;20217;-88
2021/11/11 05:45:05;;;;;;;16.60;10.53;;;2.80;97.20;;;;;;5076109;28;20301;-87
2021/11/11 05:47:33;;;;;;;14.63;10.00;;;2.80;97.00;;;;;;5080450;28;20231;-90
2021/11/11 05:50:00;;;;;;;18.30;10.30;;;2.70;97.00;;;;;;5074838;28;20202;-87
2021/11/11 05:52:27;;;;;;;14.57;9.80;;;2.70;97.20;;;;;;5065473;28;20221;-87
2021/11/11 05:54:54;;;;;;;20.77;10.33;;;2.70;97.20;;;;;;5066073;28;20214;-86
2021/11/11 05:57:21;;;;;;;16.70;10.13;;;2.70;97.10;;;;;;5070408;28;20230;-85
2021/11/11 05:59:49;;;;;;;17.33;9.97;;;2.70;97.00;;;;;;5065363;28;20355;-85
2021/11/11 06:02:16;;;;;;;17.50;10.00;;;2.70;96.90;;;;;;5067102;28;20235;-86
2021/11/11 06:04:45;;;;;;;18.03;9.80;;;2.50;97.20;;;;;;5088101;28;20277;-86
2021/11/11 06:07:12;;;;;;;17.73;9.80;;;2.40;97.50;;;;;;5065419;28;20601;-87
2021/11/11 06:09:39;;;;;;;15.37;10.23;;;2.40;97.60;;;;;;5063065;28;20269;-87
2021/11/11 06:12:08;;;;;;;15.60;9.93;;;2.50;97.60;;;;;;5060513;28;20224;-87
2021/11/11 06:14:35;;;;;;;16.43;9.63;;;2.50;97.60;;;;;;5065219;28;20598;-88
2021/11/11 06:17:05;;;;;;;18.17;10.20;;;2.50;97.50;;;;;;5060838;28;20234;-87
2021/11/11 06:19:33;;;;;;;15.07;9.87;;;2.50;97.70;;;;;;5057665;28;20781;-87
2021/11/11 06:22:02;;;;;;;15.70;9.60;;;2.50;97.20;;;;;;5058559;28;20739;-89
2021/11/11 06:24:29;;;;;;;14.53;9.57;;;2.40;97.30;;;;;;5059813;28;20208;-88
2021/11/11 06:26:57;;;;;;;14.90;9.83;;;2.50;97.40;;;;;;5059084;28;20190;-88
2021/11/11 06:29:25;;;;;;;14.43;9.57;;;2.30;97.10;;;;;;5053618;28;20203;-90
2021/11/11 06:31:52;;;;;;;14.93;10.07;;;2.30;97.80;;;;;;5060142;28;20289;-91
2021/11/11 06:34:19;;;;;;;12.30;8.90;;;2.40;98.00;;;;;;5062977;28;20194;-88
2021/11/11 06:36:46;;;;;;;12.67;9.07;;;2.30;97.90;;;;;;5045542;28;20202;-87
2021/11/11 06:39:15;;;;;;;12.63;8.93;;;2.40;97.80;;;;;;5058996;28;20221;-89
2021/11/11 06:41:42;;;;;;;12.47;8.80;;;2.40;97.60;;;;;;5050175;28;20210;-89
2021/11/11 06:44:10;;;;;;;10.83;8.33;;;2.40;97.70;;;;;;5053641;28;20543;-88
2021/11/11 06:46:38;;;;;;;13.87;9.30;;;2.50;97.50;;;;;;5049104;28;20257;-89
2021/11/11 06:49:05;;;;;;;15.43;9.20;;;2.50;97.20;;;;;;5052516;28;20218;-88
2021/11/11 06:51:33;;;;;;;12.50;8.37;;;2.40;97.30;;;;;;5047491;28;20639;-88
2021/11/11 06:54:00;;;;;;;12.20;8.30;;;2.50;97.20;;;;;;5047010;28;20228;-88
2021/11/11 06:56:28;;;;;;;15.47;9.13;;;2.60;97.20;;;;;;5049842;28;20210;-89
2021/11/11 06:58:55;;;;;;;13.63;9.10;;;2.60;96.90;;;;;;5047538;28;20249;-87
2021/11/11 07:01:23;;;;;;;11.63;9.13;;;2.60;96.70;;;;;;5042310;28;20217;-89
2021/11/11 07:03:50;;;;;;;14.60;9.67;;;2.60;96.70;;;;;;5050533;28;20700;-87
2021/11/11 07:06:17;;;;;;;16.17;10.53;;;2.60;96.50;;;;;;5059076;28;20207;-90
2021/11/11 07:08:46;;;;;;;18.73;9.53;;;2.50;96.70;;;;;;5048417;28;20320;-90
2021/11/11 07:11:13;;;;;;;15.33;9.13;;;2.40;97.10;;;;;;5049696;28;20204;-89
2021/11/11 07:13:41;;;;;;;13.20;8.87;;;2.40;97.70;;;;;;5052651;28;20306;-91
2021/11/11 07:16:08;;;;;;;14.00;9.27;;;2.50;97.80;;;;;;5056187;28;20260;-89
2021/11/11 07:18:36;;;;;;;13.07;8.90;;;2.50;97.60;;;;;;5053584;28;20240;-90
2021/11/11 07:21:03;;;;;;;17.27;10.00;;;2.70;97.60;;;;;;5045582;28;20237;-90
2021/11/11 07:23:30;;;;;;;15.60;8.60;;;2.80;97.20;;;;;;5041151;28;20308;-89
2021/11/11 07:25:57;;;;;;;12.47;8.40;;;3.00;97.00;;;;;;5039395;28;20198;-89
2021/11/11 07:28:24;;;;;;;11.87;8.23;;;3.10;97.20;;;;;;5045795;28;20230;-89
2021/11/11 07:31:23;;;;;;;14.47;8.50;;;3.30;96.50;;;;;;5048505;28;20204;-89
2021/11/11 07:33:50;;;;;;;10.53;8.30;;;3.50;95.80;;;;;;5048866;28;20225;-91
2021/11/11 07:36:17;;;;;;;15.50;8.97;;;3.70;95.60;;;;;;5045659;28;20218;-91
2021/11/11 07:38:44;;;;;;;13.40;8.43;;;4.00;94.90;;;;;;5048899;28;20226;-91
2021/11/11 07:41:11;;;;;;;16.20;9.27;;;4.10;94.90;;;;;;5043762;28;20222;-91
2021/11/11 07:43:38;;;;;;;13.87;8.53;;;4.10;94.90;;;;;;5044189;28;20218;-91
2021/11/11 07:48:37;;;;;;;12.47;9.00;;;4.30;94.90;;;;;;5056956;28;20220;-90
2021/11/11 07:51:04;;;;;;;9.40;7.20;;;4.30;94.90;;;;;;5049166;28;20206;-90
2021/11/11 07:53:32;;;;;;;14.67;6.77;;;4.30;94.90;;;;;;5045794;28;21405;-91
2021/11/11 07:55:59;;;;;;;10.13;7.67;;;4.40;94.90;;;;;;5048636;28;20197;-89
2021/11/11 07:58:26;;;;;;;8.77;7.00;;;4.60;95.00;;;;;;5050555;28;20226;-89
2021/11/11 08:00:54;;;;;;;12.80;7.70;;;4.70;95.30;;;;;;5048422;28;20680;-90
2021/11/11 08:03:21;;;;;;;11.17;7.00;;;4.80;94.50;;;;;;5065791;28;20274;-88
2021/11/11 08:05:49;;;;;;;11.23;7.50;;;4.90;94.20;;;;;;5072573;28;20232;-89
2021/11/11 08:08:18;;;;;;;10.57;6.67;;;5.00;94.20;;;;;;5058454;28;20631;-89
2021/11/11 08:10:45;;;;;;;13.93;7.07;;;5.10;94.00;;;;;;5052128;28;20198;-89
2021/11/11 08:13:13;;;;;;;11.07;6.57;;;5.20;93.50;;;;;;5052596;28;20684;-90
2021/11/11 08:15:42;;;;;;;9.60;5.90;;;5.30;93.80;;;;;;5048161;28;20228;-89
2021/11/11 08:18:10;;;;;;;8.57;6.30;;;5.60;93.50;;;;;;5052240;28;20238;-93
2021/11/11 08:20:45;;;;;;;10.30;6.13;;;6.00;92.80;;;;;;5071320;28;20219;-92
2021/11/11 08:23:34;;;;;;;8.97;6.30;;;6.30;92.10;;;;;;5053147;28;20218;-91
2021/11/11 08:26:05;;;;;;;10.40;6.83;;;6.60;90.90;;;;;;5047571;28;20376;-92
2021/11/11 08:28:35;;;;;;;8.87;6.30;;;6.70;90.00;;;;;;5062184;28;20225;-92
2021/11/11 08:31:04;;;;;;;8.20;5.90;;;6.90;90.00;;;;;;5065861;28;20285;-91
2021/11/11 08:33:31;;;;;;;9.40;6.50;;;7.10;90.10;;;;;;5056849;28;20222;-92
2021/11/11 08:35:58;;;;;;;9.48;6.25;;;7.40;90.10;;;;;;5051029;28;20212;-92
2021/11/11 08:38:27;;;;;;;9.55;6.43;;;7.90;88.20;;;;;;5048470;28;20232;-91
2021/11/11 08:43:38;;;;;;;7.07;6.32;;;9.20;78.00;;;;;;5053918;28;20261;-93
2021/11/11 08:46:05;;;;;;;9.73;6.10;;;9.90;74.90;;;;;;5061251;28;20198;-93
2021/11/11 08:48:32;;;;;;;7.95;6.38;;;10.90;63.80;;;;;;5033303;28;20225;-92
2021/11/11 08:50:59;;;;;;;10.32;6.43;;;11.60;57.60;;;;;;5028948;28;20221;-90
2021/11/11 08:53:33;;;;;;;10.63;7.15;;;12.50;51.40;;;;;;5043716;28;20276;-88
2021/11/11 08:56:02;;;;;;;10.18;7.22;;;13.20;49.70;;;;;;5051708;28;20694;-90
2021/11/11 08:58:31;;;;;;;10.13;7.82;;;13.80;45.70;;;;;;5041655;28;20230;-88
2021/11/11 09:01:01;;;;;;;12.23;7.68;;;14.30;40.90;;;;;;5034369;28;20237;-89
2021/11/11 09:03:29;;;;;;;9.38;7.55;;;14.30;39.50;;;;;;5034510;28;20234;-86
2021/11/11 09:05:56;;;;;;;9.52;7.57;;;14.80;37.60;;;;;;5033255;28;20218;-87
2021/11/11 09:08:24;;;;;;;8.55;7.65;;;16.10;34.30;;;;;;5037766;28;20872;-85
2021/11/11 09:10:52;;;;;;;12.35;7.93;;;16.20;33.40;;;;;;5036706;28;20213;-85
2021/11/11 09:13:20;;;;;;;12.20;8.43;;;16.50;31.50;;;;;;5032900;28;20309;-87
2021/11/11 09:15:48;;;;;;;9.77;8.77;;;16.20;31.50;;;;;;5028559;28;20573;-89
2021/11/11 09:18:15;;;;;;;14.02;8.93;;;16.50;31.10;;;;;;5027138;28;20226;-89
2021/11/11 09:20:44;;;;;;;11.40;7.72;;;17.10;29.60;;;;;;5033535;28;20227;-88
2021/11/11 09:23:11;;;;;;;11.75;8.73;;;17.50;28.80;;;;;;5039145;28;20218;-87
2021/11/11 09:25:38;;;;;;;14.27;8.68;;;17.90;27.80;;;;;;5038344;28;20213;-87
2021/11/11 09:28:06;;;;;;;12.18;8.68;;;18.30;27.70;;;;;;5036074;28;20636;-86
2021/11/11 09:30:42;;;;;;;10.38;8.55;;;19.20;24.60;;;;;;5038612;28;20686;-87
2021/11/11 09:33:10;;;;;;;11.07;9.30;;;19.10;24.60;;;;;;5036588;28;20236;-85
2021/11/11 09:35:38;;;;;;;10.57;8.45;;;19.20;25.10;;;;;;5041060;28;20209;-86
2021/11/11 09:38:08;;;;;;;12.95;8.98;;;19.00;24.40;;;;;;5038050;28;20245;-86
2021/11/11 09:40:36;;;;;;;14.20;9.60;;;19.60;23.50;;;;;;5035678;28;20713;-87
2021/11/11 09:43:03;;;;;;;16.52;9.15;;;18.90;22.90;;;;;;5036990;28;20249;-87
2021/11/11 09:45:35;;;;;;;12.00;8.95;;;18.90;24.30;;;;;;5036765;28;20642;-85
2021/11/11 09:48:04;;;;;;;10.20;8.27;;;19.30;23.80;;;;;;5046506;28;20242;-86
2021/11/11 09:50:32;;;;;;;12.05;8.95;;;19.80;23.00;;;;;;5039688;28;20212;-88
2021/11/11 09:53:05;;;;;;;12.32;9.05;;;20.10;22.50;;;;;;5040658;28;20334;-85
2021/11/11 09:58:38;;;;;;;12.15;9.60;;;18.60;23.40;;;;;;5036973;28;20224;-86
2021/11/11 10:01:08;;;;;;;10.55;8.40;;;17.60;27.40;;;;;;5036996;28;20217;-87
2021/11/11 10:03:41;;;;;;;10.30;8.82;;;18.40;25.90;;;;;;5035876;28;20226;-87
2021/11/11 10:06:09;;;;;;;14.05;8.63;;;19.00;24.30;;;;;;5036341;28;20194;-85
2021/11/11 10:08:39;;;;;;;13.02;9.52;;;18.80;24.40;;;;;;5037536;28;20635;-86
2021/11/11 10:11:11;;;;;;;14.57;9.32;;;18.70;24.30;;;;;;5037055;28;20207;-88
2021/11/11 10:13:38;;;;;;;11.35;9.32;;;17.40;27.10;;;;;;5036693;28;20299;-85
2021/11/11 10:16:10;;;;;;;23.33;10.35;;;16.80;29.40;;;;;;5035661;28;20197;-87
2021/11/11 10:18:52;;;;;;;17.92;10.00;;;16.40;29.00;;;;;;5029295;28;20218;-87
2021/11/11 10:21:31;;;;;;;13.50;9.70;;;16.70;29.30;;;;;;5027204;28;20225;-87
2021/11/11 10:24:26;;;;;;;14.65;9.55;;;17.10;29.70;;;;;;5033154;28;20640;-87
2021/11/11 10:26:58;;;;;;;14.20;10.07;;;17.40;28.60;;;;;;5033658;28;20236;-86
2021/11/11 10:29:32;;;;;;;14.70;9.43;;;18.00;28.00;;;;;;5034554;28;20278;-85
2021/11/11 10:32:08;;;;;;;12.38;9.10;;;18.30;26.10;;;;;;5032656;28;20650;-86
2021/11/11 10:34:45;;;;;;;15.63;9.40;;;18.20;26.20;;;;;;5036749;28;20206;-87
2021/11/11 10:37:12;;;;;;;11.10;9.90;;;17.80;27.10;;;;;;5035473;28;20271;-84
2021/11/11 10:39:41;;;;;;;13.85;9.50;;;17.30;28.00;;;;;;5038571;28;20221;-85
2021/11/11 10:42:16;;;;;;;15.82;10.45;;;17.40;29.80;;;;;;5038536;28;20230;-83
2021/11/11 10:44:43;;;;;;;11.73;9.15;;;17.20;29.60;;;;;;5041988;28;20197;-86
2021/11/11 10:47:12;;;;;;;11.80;9.65;;;17.50;27.90;;;;;;5034219;28;20240;-87
2021/11/11 10:49:48;;;;;;;12.65;9.00;;;17.20;28.00;;;;;;5038259;28;20211;-89
2021/11/11 10:52:43;;;;;;;15.02;10.20;;;17.20;28.80;;;;;;5027261;28;20223;-89
2021/11/11 10:55:20;;;;;;;12.00;9.57;;;16.60;29.20;;;;;;5039241;28;20302;-87
2021/11/11 10:57:54;;;;;;;12.95;9.30;;;16.00;30.60;;;;;;5034182;28;20222;-85
2021/11/11 11:00:28;;;;;;;13.05;9.27;;;15.50;32.00;;;;;;5040258;28;20316;-87
2021/11/11 11:03:00;;;;;;;11.95;9.40;;;15.30;32.80;;;;;;5035794;28;20229;-88
2021/11/11 11:05:31;;;;;;;11.55;9.60;;;14.90;34.30;;;;;;5040680;28;20194;-87
2021/11/11 11:08:01;;;;;;;11.30;9.35;;;14.80;34.70;;;;;;5036642;28;20258;-89
2021/11/11 11:10:29;;;;;;;14.75;9.70;;;14.60;35.40;;;;;;5027789;28;20206;-91
2021/11/11 11:12:56;;;;;;;13.57;9.93;;;14.30;36.30;;;;;;5032489;28;20687;-91
2021/11/11 11:15:42;;;;;;;14.13;9.50;;;14.00;37.30;;;;;;5033451;28;20198;-91
2021/11/11 11:18:10;;;;;;;14.27;9.65;;;13.70;38.60;;;;;;5036135;28;20226;-91
2021/11/11 11:20:49;;;;;;;17.40;10.07;;;13.70;41.90;;;;;;5037201;28;20228;-92
2021/11/11 11:23:29;;;;;;;14.95;10.27;;;13.70;41.10;;;;;;5031402;28;20218;-92
2021/11/11 11:26:10;;;;;;;20.65;10.75;;;13.70;41.70;;;;;;5035373;28;20206;-91
2021/11/11 11:28:48;;;;;;;12.80;9.52;;;13.50;40.60;;;;;;5038990;28;20234;-91
2021/11/11 11:31:32;;;;;;;11.57;9.70;;;13.40;41.80;;;;;;5033534;28;20240;-90
2021/11/11 11:34:05;;;;;;;11.65;9.35;;;13.50;42.40;;;;;;5037163;28;20251;-90
2021/11/11 11:36:47;;;;;;;14.25;9.55;;;13.50;42.20;;;;;;5036509;28;20198;-91
2021/11/11 11:39:51;;;;;;;13.80;10.63;;;13.30;42.60;;;;;;5044889;28;20210;-89
2021/11/11 11:42:21;;;;;;;17.83;12.45;;;13.30;42.60;;;;;;5041050;28;20236;-89
2021/11/11 11:44:54;;;;;;;17.60;11.63;;;13.30;42.70;;;;;;5043993;28;20201;-89
2021/11/11 12:07:42;;;;;;;17.38;13.48;;;13.00;49.50;;;;;;5063369;28;20229;-90
2021/11/11 12:10:22;;;;;;;18.90;13.15;;;12.80;53.90;;;;;;5043929;28;20302;-90
2021/11/11 12:39:56;;;;;;;17.48;13.07;;;12.00;65.20;;;;;;5057346;28;20240;-87
2021/11/11 12:42:34;;;;;;;16.00;12.82;;;11.80;65.00;;;;;;5030992;28;20238;-87
2021/11/11 12:45:12;;;;;;;14.77;13.27;;;11.70;65.20;;;;;;5035019;28;20190;-87
2021/11/11 12:47:42;;;;;;;17.13;13.27;;;11.70;65.90;;;;;;5032494;28;20260;-85
2021/11/11 12:50:44;;;;;;;27.05;17.75;;;11.70;66.30;;;;;;5037726;28;20240;-87
2021/11/11 13:03:07;;;;;;;16.88;13.38;;;11.30;69.60;;;;;;5010745;28;20230;-87
2021/11/11 13:10:04;;;;;;;23.15;13.60;;;11.20;72.40;;;;;;5030826;28;20334;-87
2021/11/11 13:16:12;;;;;;;16.55;12.82;;;11.10;74.30;;;;;;5013883;28;20164;-87
2021/11/11 13:18:45;;;;;;;14.57;12.30;;;11.00;74.10;;;;;;5013220;28;20220;-87
2021/11/11 13:25:14;;;;;;;16.85;12.60;;;11.00;74.10;;;;;;5024252;28;20230;-88
2021/11/11 14:00:34;;;;;;;15.20;13.07;;;10.60;76.10;;;;;;5078402;28;20208;-89
2021/11/11 15:17:31;;;;;;;24.60;17.40;;;8.30;91.10;;;;;;5109439;28;20235;-89
2021/11/11 16:22:46;;;;;;;32.97;23.87;;;6.20;97.20;;;;;;5087117;28;20231;-93
2021/11/11 16:27:59;;;;;;;32.50;23.60;;;6.20;97.30;;;;;;5088134;28;20220;-92
2021/11/11 16:30:26;;;;;;;32.73;24.30;;;6.20;97.00;;;;;;5086901;28;20222;-93
2021/11/11 16:32:53;;;;;;;31.70;24.47;;;6.10;97.10;;;;;;5094530;28;20303;-93
2021/11/11 16:35:27;;;;;;;30.43;23.67;;;5.90;97.30;;;;;;5094948;28;20203;-94
2021/11/11 16:50:01;;;;;;;25.90;20.60;;;5.80;97.80;;;;;;5514458;22;20229;-92
2021/11/11 16:52:29;;;;;;;27.73;21.77;;;5.80;97.80;;;;;;5050859;28;20233;-92
2021/11/11 16:55:23;;;;;;;29.57;21.97;;;5.80;97.80;;;;;;5053592;28;20216;-91
2021/11/11 16:57:51;;;;;;;27.43;20.73;;;5.70;97.80;;;;;;5050636;28;20201;-93
2021/11/11 17:00:19;;;;;;;27.70;21.43;;;5.70;97.80;;;;;;5041606;28;20197;-93
2021/11/11 17:02:48;;;;;;;26.67;21.50;;;5.70;97.80;;;;;;5052310;28;20220;-89
2021/11/11 17:05:15;;;;;;;27.43;21.57;;;5.80;97.80;;;;;;5049733;28;20198;-89
2021/11/11 17:11:16;;;;;;;25.80;21.40;;;5.80;97.20;;;;;;5044277;28;20177;-90
2021/11/11 17:13:45;;;;;;;29.07;21.77;;;5.70;97.30;;;;;;5035429;28;20679;-93
2021/11/11 17:16:16;;;;;;;27.60;21.83;;;5.80;97.30;;;;;;5055459;28;20220;-90
2021/11/11 17:19:39;;;;;;;32.23;21.73;;;5.70;97.00;;;;;;5053713;28;20645;-91
2021/11/11 17:22:37;;;;;;;30.00;22.93;;;5.70;96.80;;;;;;5053110;28;20682;-91
2021/11/11 17:25:30;;;;;;;30.80;22.97;;;5.70;96.40;;;;;;5050961;28;20235;-91
2021/11/11 17:28:50;;;;;;;30.87;24.10;;;5.70;96.40;;;;;;5045769;28;20221;-92
2021/11/11 17:34:50;;;;;;;32.87;23.57;;;5.60;96.70;;;;;;5055544;28;20198;-93
2021/11/11 17:37:16;;;;;;;34.43;23.77;;;5.50;97.20;;;;;;5047849;28;20289;-90
2021/11/11 17:39:44;;;;;;;28.97;21.47;;;5.30;97.50;;;;;;5051529;28;20645;-87
2021/11/11 17:42:11;;;;;;;32.43;24.13;;;5.20;97.70;;;;;;5041064;28;20229;-91